Time;durP1;ratioP1;P1;durP2;ratioP2;P2;SDS_P1;SDS_P2;PMS_P1;PMS_P2;Temp;Humidity;BMP_temperature;BMP_pressure;BME280_temperature;BME280_humidity;BME280_pressure;Samples;Min_cycle;Max_cycle;Signal;HPM_P1;HPM_P2
2020/12/25 00:01:21;;;;;;;90.25;36.17;;;8.80;99.90;;;;;;6247009;22;20057;-80
2020/12/25 00:03:49;;;;;;;92.40;35.92;;;8.80;99.90;;;;;;6246855;22;20004;-80
2020/12/25 00:06:15;;;;;;;100.90;37.45;;;8.80;99.90;;;;;;6246654;22;20083;-81
2020/12/25 00:08:41;;;;;;;89.90;38.67;;;8.80;99.90;;;;;;6247040;23;20000;-80
2020/12/25 00:11:06;;;;;;;90.93;35.75;;;8.80;99.90;;;;;;6245256;23;20008;-82
2020/12/25 00:13:32;;;;;;;90.25;37.53;;;8.80;99.90;;;;;;6245431;23;20600;-81
2020/12/25 00:15:58;;;;;;;93.03;37.97;;;8.80;99.90;;;;;;6246763;23;20485;-81
2020/12/25 00:18:24;;;;;;;83.55;35.42;;;8.80;99.90;;;;;;6245271;23;20451;-80
2020/12/25 00:20:53;;;;;;;94.30;35.33;;;8.80;99.90;;;;;;6246599;22;20007;-81
2020/12/25 00:23:21;;;;;;;87.70;35.05;;;8.80;99.90;;;;;;6246807;23;20092;-80
2020/12/25 00:25:47;;;;;;;83.05;34.10;;;8.80;99.90;;;;;;6246842;22;20008;-81
2020/12/25 00:28:13;;;;;;;86.65;34.95;;;8.80;99.90;;;;;;6246852;22;20593;-81
2020/12/25 00:30:43;;;;;;;79.30;33.30;;;8.80;99.90;;;;;;6219863;23;20091;-81
2020/12/25 00:33:09;;;;;;;94.97;36.95;;;8.80;99.90;;;;;;6245248;23;20004;-80
2020/12/25 00:35:35;;;;;;;95.80;35.50;;;8.80;99.90;;;;;;6246557;22;20314;-81
2020/12/25 00:38:01;;;;;;;87.57;34.28;;;8.80;99.90;;;;;;6246565;23;20148;-81
2020/12/25 00:40:26;;;;;;;87.75;32.47;;;8.80;99.90;;;;;;6246921;23;20086;-81
2020/12/25 00:42:52;;;;;;;118.53;32.97;;;8.70;99.90;;;;;;6246808;23;20327;-80
2020/12/25 00:45:18;;;;;;;80.25;30.40;;;8.80;99.90;;;;;;6246661;23;20004;-81
2020/12/25 00:47:44;;;;;;;112.72;31.60;;;8.70;99.90;;;;;;6243958;23;20048;-81
2020/12/25 00:50:10;;;;;;;120.80;33.60;;;8.70;99.90;;;;;;6246685;22;20007;-80
2020/12/25 00:52:36;;;;;;;77.18;29.67;;;8.70;99.90;;;;;;6245062;23;20008;-81
2020/12/25 00:55:02;;;;;;;119.95;32.53;;;8.70;99.90;;;;;;6246471;23;20000;-81
2020/12/25 00:57:27;;;;;;;97.97;32.22;;;8.70;99.90;;;;;;6246663;22;20011;-81
2020/12/25 00:59:53;;;;;;;81.70;28.75;;;8.70;99.90;;;;;;6244955;23;20458;-81
2020/12/25 01:02:19;;;;;;;77.68;30.15;;;8.70;99.90;;;;;;6246603;23;20004;-80
2020/12/25 01:04:44;;;;;;;76.88;28.75;;;8.60;99.90;;;;;;6245187;23;20004;-81
2020/12/25 01:07:10;;;;;;;59.10;27.55;;;8.60;99.90;;;;;;6246440;23;20011;-80
2020/12/25 01:09:36;;;;;;;71.35;29.15;;;8.60;99.90;;;;;;6244849;23;20092;-81
2020/12/25 01:12:02;;;;;;;65.63;28.85;;;8.60;99.90;;;;;;6244586;23;20328;-81
2020/12/25 01:14:29;;;;;;;67.85;29.17;;;8.70;99.90;;;;;;6246526;22;20001;-80
2020/12/25 01:16:56;;;;;;;63.88;27.25;;;8.70;99.90;;;;;;6246436;22;20050;-80
2020/12/25 01:19:27;;;;;;;63.85;27.33;;;8.70;99.90;;;;;;6246382;22;20000;-81
2020/12/25 01:21:53;;;;;;;66.00;28.65;;;8.70;99.90;;;;;;6246331;23;20004;-81
2020/12/25 01:24:19;;;;;;;68.15;28.10;;;8.70;99.90;;;;;;6246338;22;20027;-80
2020/12/25 01:26:45;;;;;;;69.20;28.33;;;8.60;99.90;;;;;;6246420;23;19996;-81
2020/12/25 01:29:11;;;;;;;59.40;27.02;;;8.60;99.90;;;;;;6246316;23;20070;-80
2020/12/25 01:31:37;;;;;;;58.72;27.52;;;8.60;99.90;;;;;;6245765;22;20008;-81
2020/12/25 01:34:03;;;;;;;58.95;25.75;;;8.60;99.90;;;;;;6244755;23;20007;-81
2020/12/25 01:36:29;;;;;;;55.83;24.48;;;8.60;99.90;;;;;;6245999;22;20019;-81
2020/12/25 01:38:55;;;;;;;57.53;26.63;;;8.60;99.90;;;;;;6246036;23;20332;-81
2020/12/25 01:41:21;;;;;;;62.92;29.35;;;8.60;99.90;;;;;;6246155;22;20432;-81
2020/12/25 01:43:46;;;;;;;57.22;25.98;;;8.60;99.90;;;;;;6244552;23;20031;-81
2020/12/25 01:46:13;;;;;;;44.58;21.52;;;8.60;99.90;;;;;;6246077;23;20010;-80
2020/12/25 01:48:39;;;;;;;44.75;21.08;;;8.60;99.90;;;;;;6244546;23;20012;-81
2020/12/25 01:51:07;;;;;;;32.00;16.42;;;8.50;99.90;;;;;;6244510;23;20622;-81
2020/12/25 01:53:35;;;;;;;30.10;15.45;;;8.40;99.90;;;;;;6246060;22;20000;-81
2020/12/25 01:56:02;;;;;;;31.33;14.23;;;8.40;99.90;;;;;;6244456;23;20011;-80
2020/12/25 01:58:30;;;;;;;30.13;15.32;;;8.40;99.90;;;;;;6245965;22;20328;-81
2020/12/25 02:00:56;;;;;;;27.30;15.15;;;8.40;99.90;;;;;;6244436;23;20014;-81
2020/12/25 02:03:22;;;;;;;28.73;13.63;;;8.40;99.90;;;;;;6246146;22;20000;-81
2020/12/25 02:05:48;;;;;;;30.45;15.55;;;8.40;99.90;;;;;;6245858;23;20054;-81
2020/12/25 02:08:14;;;;;;;32.92;17.73;;;8.40;99.90;;;;;;6245752;23;20080;-81
2020/12/25 02:10:41;;;;;;;37.25;19.65;;;8.40;99.90;;;;;;6245787;22;19996;-80
2020/12/25 02:13:08;;;;;;;38.00;20.73;;;8.40;99.90;;;;;;6244310;23;20004;-81
2020/12/25 02:15:35;;;;;;;40.38;21.63;;;8.50;99.90;;;;;;6244267;23;20004;-80
2020/12/25 02:18:01;;;;;;;43.95;22.48;;;8.50;99.90;;;;;;6245705;22;20005;-80
2020/12/25 02:20:27;;;;;;;41.08;20.77;;;8.50;99.90;;;;;;6245825;22;20435;-80
2020/12/25 02:22:53;;;;;;;39.95;21.25;;;8.50;99.90;;;;;;6245783;23;20026;-81
2020/12/25 02:25:19;;;;;;;44.35;21.08;;;8.50;99.90;;;;;;6245828;23;20004;-81
2020/12/25 02:27:44;;;;;;;39.33;21.17;;;8.40;99.90;;;;;;6244245;23;20008;-80
2020/12/25 02:30:10;;;;;;;43.33;21.20;;;8.50;99.90;;;;;;6245522;23;20011;-80
2020/12/25 02:32:36;;;;;;;42.35;20.63;;;8.50;99.90;;;;;;6245812;22;20007;-81
2020/12/25 02:35:03;;;;;;;47.97;21.42;;;8.50;99.90;;;;;;6243743;23;20435;-80
2020/12/25 02:37:29;;;;;;;40.40;18.83;;;8.40;99.90;;;;;;6245835;22;20475;-80
2020/12/25 02:39:55;;;;;;;42.72;19.35;;;8.50;99.90;;;;;;6245664;23;20004;-80
2020/12/25 02:42:21;;;;;;;48.15;20.67;;;8.50;99.90;;;;;;6244858;23;20047;-81
2020/12/25 02:44:46;;;;;;;39.10;18.52;;;8.40;99.90;;;;;;6249000;22;20012;-80
2020/12/25 02:47:12;;;;;;;46.17;20.02;;;8.40;99.90;;;;;;6249147;23;20004;-81
2020/12/25 02:49:39;;;;;;;44.88;18.85;;;8.30;99.90;;;;;;6249056;22;20000;-81
2020/12/25 02:52:05;;;;;;;39.05;21.10;;;8.30;99.90;;;;;;6249008;23;20000;-81
2020/12/25 02:54:33;;;;;;;39.80;19.65;;;8.30;99.90;;;;;;6247508;23;20004;-81
2020/12/25 02:56:59;;;;;;;39.17;18.85;;;8.30;99.90;;;;;;6247551;23;20004;-81
2020/12/25 02:59:25;;;;;;;36.55;18.58;;;8.30;99.90;;;;;;6247407;23;20028;-81
2020/12/25 03:01:52;;;;;;;41.15;19.77;;;8.30;99.90;;;;;;6247492;23;20004;-81
2020/12/25 03:04:21;;;;;;;32.08;18.05;;;8.30;99.90;;;;;;6247417;23;20016;-81
2020/12/25 03:06:47;;;;;;;32.58;16.35;;;8.30;99.90;;;;;;6248908;22;20000;-81
2020/12/25 03:09:13;;;;;;;30.70;17.55;;;8.20;99.90;;;;;;6248898;23;20058;-81
2020/12/25 03:11:40;;;;;;;26.80;14.95;;;8.20;99.90;;;;;;6248877;22;20498;-81
2020/12/25 03:14:05;;;;;;;25.17;13.80;;;8.20;99.90;;;;;;6249020;22;19996;-81
2020/12/25 03:16:31;;;;;;;20.13;13.02;;;8.10;99.90;;;;;;6249044;22;20075;-81
2020/12/25 03:18:57;;;;;;;14.98;10.20;;;8.10;99.90;;;;;;6248831;23;20000;-81
2020/12/25 03:21:23;;;;;;;15.98;10.98;;;8.00;99.90;;;;;;6248981;23;20083;-81
2020/12/25 03:23:49;;;;;;;18.58;10.80;;;7.90;99.90;;;;;;6249017;22;20008;-81
2020/12/25 03:26:16;;;;;;;11.02;8.18;;;7.90;99.90;;;;;;6248632;22;20027;-81
2020/12/25 03:28:42;;;;;;;17.27;10.75;;;7.80;99.90;;;;;;6248993;22;20004;-81
2020/12/25 03:31:07;;;;;;;15.77;11.13;;;7.80;99.90;;;;;;6248881;23;20073;-81
2020/12/25 03:33:33;;;;;;;21.08;12.80;;;7.80;99.90;;;;;;6249005;23;19996;-81
2020/12/25 03:35:59;;;;;;;19.30;12.88;;;7.80;99.90;;;;;;6248530;23;20011;-81
2020/12/25 03:38:25;;;;;;;23.30;13.18;;;7.70;99.90;;;;;;6247153;23;20004;-81
2020/12/25 03:40:51;;;;;;;17.35;11.30;;;7.70;99.90;;;;;;6249070;22;20007;-81
2020/12/25 03:43:17;;;;;;;27.58;12.85;;;7.60;99.90;;;;;;6248851;22;20007;-81
2020/12/25 03:45:43;;;;;;;17.02;11.73;;;7.60;99.90;;;;;;6247420;23;20008;-81
2020/12/25 03:48:09;;;;;;;22.90;13.48;;;7.50;99.90;;;;;;6248832;23;20567;-81
2020/12/25 03:50:34;;;;;;;26.77;13.52;;;7.50;99.90;;;;;;6247238;23;20031;-81
2020/12/25 03:53:00;;;;;;;24.83;13.43;;;7.50;99.90;;;;;;6248682;23;20036;-81
2020/12/25 03:55:26;;;;;;;16.55;11.27;;;7.50;99.90;;;;;;6246864;23;20008;-81
2020/12/25 03:57:51;;;;;;;18.20;11.25;;;7.40;99.90;;;;;;6245538;23;20000;-81
2020/12/25 04:00:17;;;;;;;14.23;9.80;;;7.40;99.90;;;;;;6247167;23;20014;-81
2020/12/25 04:02:43;;;;;;;14.32;9.63;;;7.30;99.90;;;;;;6247344;22;20079;-81
2020/12/25 04:05:09;;;;;;;20.48;12.85;;;7.30;99.90;;;;;;6247228;23;20024;-81
2020/12/25 04:07:35;;;;;;;19.05;12.68;;;7.20;99.90;;;;;;6247016;22;20004;-81
2020/12/25 04:10:01;;;;;;;19.95;12.15;;;7.20;99.90;;;;;;6246931;23;20133;-81
2020/12/25 04:12:26;;;;;;;18.75;12.07;;;7.30;99.90;;;;;;6245575;23;20004;-81
2020/12/25 04:14:52;;;;;;;16.25;11.68;;;7.20;99.90;;;;;;6246898;23;20000;-81
2020/12/25 04:17:18;;;;;;;19.75;13.45;;;7.30;99.90;;;;;;6246894;23;20000;-81
2020/12/25 04:19:43;;;;;;;24.55;14.32;;;7.30;99.90;;;;;;6245348;23;20004;-81
2020/12/25 04:22:09;;;;;;;29.35;15.70;;;7.30;99.90;;;;;;6246851;23;20054;-81
2020/12/25 04:24:35;;;;;;;27.75;14.85;;;7.40;99.90;;;;;;6246956;23;20079;-81
2020/12/25 04:27:00;;;;;;;26.75;14.18;;;7.40;99.90;;;;;;6245387;23;20011;-81
2020/12/25 04:29:26;;;;;;;24.65;15.38;;;7.40;99.90;;;;;;6246674;23;20008;-81
2020/12/25 04:31:54;;;;;;;23.63;14.13;;;7.50;99.90;;;;;;6246857;22;20007;-81
2020/12/25 04:34:20;;;;;;;24.05;13.85;;;7.50;99.90;;;;;;6246778;23;20003;-81
2020/12/25 04:36:46;;;;;;;24.35;13.63;;;7.50;99.90;;;;;;6245087;23;20016;-81
2020/12/25 04:39:11;;;;;;;21.42;13.57;;;7.50;99.90;;;;;;6245185;23;20000;-81
2020/12/25 04:41:37;;;;;;;20.55;13.30;;;7.60;99.90;;;;;;6246648;23;20005;-81
2020/12/25 04:44:06;;;;;;;20.30;13.27;;;7.60;99.90;;;;;;6246722;23;20065;-81
2020/12/25 04:46:32;;;;;;;25.15;14.35;;;7.60;99.90;;;;;;6246615;22;20582;-81
2020/12/25 04:48:58;;;;;;;23.70;14.32;;;7.70;99.90;;;;;;6245175;23;20008;-81
2020/12/25 04:51:24;;;;;;;19.15;13.43;;;7.70;99.90;;;;;;6246669;22;20034;-81
2020/12/25 04:53:51;;;;;;;24.58;13.77;;;7.70;99.90;;;;;;6246694;23;20026;-81
2020/12/25 04:56:21;;;;;;;29.48;15.02;;;7.70;99.90;;;;;;6246626;22;20004;-81
2020/12/25 04:58:48;;;;;;;28.73;16.85;;;7.70;99.90;;;;;;6244741;23;20008;-81
2020/12/25 05:01:14;;;;;;;32.58;18.25;;;7.70;99.90;;;;;;6244940;23;20142;-81
2020/12/25 05:03:40;;;;;;;32.72;18.85;;;7.80;99.90;;;;;;6246421;23;20004;-81
2020/12/25 05:06:08;;;;;;;35.67;17.38;;;7.80;99.90;;;;;;6244334;23;20064;-81
2020/12/25 05:08:50;;;;;;;31.25;15.60;;;7.80;99.90;;;;;;6246505;22;20000;-81
2020/12/25 05:11:20;;;;;;;34.50;19.10;;;7.80;99.90;;;;;;6246408;22;20004;-81
2020/12/25 05:13:46;;;;;;;41.33;18.83;;;7.80;99.90;;;;;;6246449;22;20007;-81
2020/12/25 05:16:13;;;;;;;40.17;20.13;;;7.80;99.90;;;;;;6246337;23;20072;-81
2020/12/25 05:18:50;;;;;;;37.53;18.95;;;7.80;99.90;;;;;;6244265;23;20011;-81
2020/12/25 05:21:18;;;;;;;40.22;18.85;;;7.80;99.90;;;;;;6246348;22;20023;-81
2020/12/25 05:23:45;;;;;;;35.00;18.35;;;7.80;99.90;;;;;;6244672;23;20329;-81
2020/12/25 05:26:13;;;;;;;32.35;17.58;;;7.70;99.90;;;;;;6246314;22;20078;-81
2020/12/25 05:28:45;;;;;;;34.05;18.20;;;7.70;99.90;;;;;;6246098;22;19992;-81
2020/12/25 05:31:12;;;;;;;35.58;18.10;;;7.70;99.90;;;;;;6246172;22;20427;-81
2020/12/25 05:33:41;;;;;;;35.10;19.40;;;7.70;99.90;;;;;;6244607;23;20032;-81
2020/12/25 05:36:09;;;;;;;36.88;18.55;;;7.70;99.90;;;;;;6244330;23;20051;-81
2020/12/25 05:38:37;;;;;;;34.25;17.48;;;7.70;99.90;;;;;;6246307;22;20455;-81
2020/12/25 05:41:04;;;;;;;35.63;17.73;;;7.70;99.90;;;;;;6246227;22;20018;-81
2020/12/25 05:43:33;;;;;;;34.45;17.63;;;7.70;99.90;;;;;;6246258;22;20444;-81
2020/12/25 05:45:59;;;;;;;39.83;16.98;;;7.80;99.90;;;;;;6246121;22;20335;-81
2020/12/25 05:48:28;;;;;;;33.85;17.10;;;7.80;99.90;;;;;;6246104;22;20502;-81
2020/12/25 05:50:54;;;;;;;28.20;14.32;;;7.80;99.90;;;;;;6246097;22;20004;-81
2020/12/25 05:53:20;;;;;;;24.08;13.57;;;7.80;99.90;;;;;;6246069;23;20004;-81
2020/12/25 05:55:46;;;;;;;24.23;13.70;;;7.80;99.90;;;;;;6246028;22;20002;-81
2020/12/25 05:58:15;;;;;;;22.35;12.52;;;7.80;99.90;;;;;;6246160;22;20000;-81
2020/12/25 06:00:42;;;;;;;21.15;12.50;;;7.70;99.90;;;;;;6244443;23;20008;-81
2020/12/25 06:03:13;;;;;;;21.77;12.27;;;7.70;99.90;;;;;;6245988;22;20082;-81
2020/12/25 06:05:40;;;;;;;24.15;14.20;;;7.60;99.90;;;;;;6244309;23;20432;-81
2020/12/25 06:08:18;;;;;;;26.13;14.32;;;7.60;99.90;;;;;;6245936;22;20070;-81
2020/12/25 06:10:45;;;;;;;22.75;14.50;;;7.70;99.90;;;;;;6245921;22;20058;-81
2020/12/25 06:13:18;;;;;;;24.98;13.77;;;7.70;99.90;;;;;;6245941;22;20000;-81
2020/12/25 06:15:49;;;;;;;25.80;14.45;;;7.70;99.90;;;;;;6245776;23;20078;-81
2020/12/25 06:18:32;;;;;;;29.95;15.38;;;7.70;99.90;;;;;;6244186;23;20038;-81
2020/12/25 06:21:04;;;;;;;22.63;14.55;;;7.70;99.90;;;;;;6245440;23;20432;-81
2020/12/25 06:23:30;;;;;;;22.38;13.85;;;7.70;99.90;;;;;;6244393;23;20008;-81
2020/12/25 06:25:56;;;;;;;22.38;13.88;;;7.70;99.90;;;;;;6245817;22;20071;-81
2020/12/25 06:28:21;;;;;;;17.45;11.70;;;7.70;99.90;;;;;;6245849;23;20102;-81
2020/12/25 06:30:47;;;;;;;18.60;12.30;;;7.70;99.90;;;;;;6244234;23;20008;-81
2020/12/25 06:33:14;;;;;;;17.58;12.50;;;7.70;99.90;;;;;;6245739;22;20360;-81
2020/12/25 06:35:42;;;;;;;18.83;11.55;;;7.60;99.90;;;;;;6243857;23;20039;-81
2020/12/25 06:38:20;;;;;;;19.05;12.32;;;7.60;99.90;;;;;;6244102;23;20000;-81
2020/12/25 06:40:47;;;;;;;20.27;13.05;;;7.60;99.90;;;;;;6245849;22;20004;-81
2020/12/25 06:43:15;;;;;;;20.27;13.13;;;7.70;99.90;;;;;;6245792;22;20000;-81
2020/12/25 06:45:41;;;;;;;19.35;13.15;;;7.70;99.90;;;;;;6243826;23;20340;-81
2020/12/25 06:48:16;;;;;;;21.75;13.18;;;7.70;99.90;;;;;;6243908;23;20012;-81
2020/12/25 06:51:01;;;;;;;20.30;13.23;;;7.70;99.90;;;;;;6245602;22;20011;-81
2020/12/25 06:53:36;;;;;;;19.30;12.35;;;7.70;99.90;;;;;;6245697;22;20339;-81
2020/12/25 06:56:10;;;;;;;18.00;12.52;;;7.70;99.90;;;;;;6245646;22;20008;-80
2020/12/25 06:58:39;;;;;;;19.75;12.40;;;7.70;99.90;;;;;;6245530;23;20379;-81
2020/12/25 07:01:05;;;;;;;18.55;13.00;;;7.80;99.90;;;;;;6244147;23;20014;-81
2020/12/25 07:03:34;;;;;;;21.02;12.55;;;7.80;99.90;;;;;;6245472;23;20442;-81
2020/12/25 07:06:01;;;;;;;23.00;13.77;;;7.80;99.90;;;;;;6243880;23;20004;-81
2020/12/25 07:08:32;;;;;;;17.45;12.07;;;7.80;99.90;;;;;;6245342;22;20024;-81
2020/12/25 07:11:08;;;;;;;16.90;11.52;;;7.80;99.90;;;;;;6245602;22;20011;-81
2020/12/25 07:13:35;;;;;;;21.50;12.50;;;7.80;99.90;;;;;;6245534;22;20099;-81
2020/12/25 07:16:01;;;;;;;21.52;13.55;;;7.80;99.90;;;;;;6245488;22;20004;-81
2020/12/25 07:18:27;;;;;;;16.67;11.23;;;7.80;99.90;;;;;;6245600;22;20004;-81
2020/12/25 07:20:56;;;;;;;18.90;12.07;;;7.80;99.90;;;;;;6244024;23;20660;-81
2020/12/25 07:23:21;;;;;;;18.00;12.50;;;7.80;99.90;;;;;;6245329;22;20004;-81
2020/12/25 07:25:47;;;;;;;19.45;12.45;;;7.80;99.90;;;;;;6245319;23;20011;-81
2020/12/25 07:28:13;;;;;;;24.33;14.63;;;7.80;99.90;;;;;;6245469;23;20123;-81
2020/12/25 07:30:39;;;;;;;16.38;9.98;;;7.80;99.90;;;;;;6245060;23;20653;-81
2020/12/25 07:33:05;;;;;;;18.50;11.13;;;7.80;99.90;;;;;;6245898;23;20027;-81
2020/12/25 07:35:31;;;;;;;19.63;12.13;;;7.80;99.90;;;;;;6245581;23;20042;-81
2020/12/25 07:37:57;;;;;;;16.60;11.20;;;7.80;99.90;;;;;;6245745;23;20050;-81
2020/12/25 07:40:23;;;;;;;15.38;10.60;;;7.80;99.90;;;;;;6247479;22;20069;-81
2020/12/25 07:42:50;;;;;;;16.75;11.75;;;7.90;99.90;;;;;;6247162;23;20589;-81
2020/12/25 07:45:17;;;;;;;19.70;11.90;;;7.90;99.90;;;;;;6247190;22;20336;-81
2020/12/25 07:47:43;;;;;;;16.48;11.13;;;8.00;99.90;;;;;;6247114;22;20439;-81
2020/12/25 07:50:08;;;;;;;16.35;11.43;;;7.90;99.90;;;;;;6247115;23;20000;-81
2020/12/25 07:52:34;;;;;;;14.65;10.30;;;7.90;99.90;;;;;;6247050;23;20054;-81
2020/12/25 07:55:00;;;;;;;15.40;10.57;;;8.00;99.90;;;;;;6247214;23;19996;-81
2020/12/25 07:57:26;;;;;;;17.90;10.98;;;8.00;99.90;;;;;;6247120;23;20000;-81
2020/12/25 07:59:55;;;;;;;17.92;11.95;;;8.00;99.90;;;;;;6245537;23;20086;-81
2020/12/25 08:02:21;;;;;;;14.88;11.35;;;8.00;99.90;;;;;;6245512;23;20065;-81
2020/12/25 08:04:47;;;;;;;15.38;11.38;;;8.00;99.90;;;;;;6245371;23;20008;-81
2020/12/25 08:07:12;;;;;;;19.15;11.80;;;8.00;99.90;;;;;;6246981;22;20010;-81
2020/12/25 08:09:40;;;;;;;20.42;13.02;;;8.00;99.90;;;;;;6246988;23;20038;-81
2020/12/25 08:12:10;;;;;;;17.88;12.77;;;8.00;99.90;;;;;;6245555;23;20011;-81
2020/12/25 08:14:39;;;;;;;21.00;12.73;;;8.00;99.90;;;;;;6246781;22;20035;-81
2020/12/25 08:17:06;;;;;;;21.50;13.63;;;8.00;99.90;;;;;;6246863;22;20087;-81
2020/12/25 08:19:35;;;;;;;26.33;14.88;;;8.00;99.90;;;;;;6245201;23;20058;-80
2020/12/25 08:22:10;;;;;;;19.80;12.52;;;8.00;99.90;;;;;;6245291;23;20454;-81
2020/12/25 08:24:39;;;;;;;19.92;12.10;;;8.00;99.90;;;;;;6246694;22;20000;-81
2020/12/25 08:27:05;;;;;;;16.52;11.15;;;8.00;99.90;;;;;;6246435;22;20428;-81
2020/12/25 08:29:31;;;;;;;15.13;10.63;;;8.00;99.90;;;;;;6246860;22;20000;-81
2020/12/25 08:32:10;;;;;;;17.95;10.57;;;8.00;99.90;;;;;;6245358;23;20062;-81
2020/12/25 08:34:36;;;;;;;14.80;10.90;;;8.00;99.90;;;;;;6246850;22;20000;-81
2020/12/25 08:37:07;;;;;;;18.08;11.93;;;8.00;99.90;;;;;;6244987;23;20016;-81
2020/12/25 08:39:33;;;;;;;16.98;12.15;;;8.00;99.90;;;;;;6246873;22;20002;-81
2020/12/25 08:41:59;;;;;;;31.65;16.13;;;8.00;99.90;;;;;;6244973;23;20008;-81
2020/12/25 08:44:26;;;;;;;17.77;12.15;;;8.10;99.90;;;;;;6245196;23;20087;-80
2020/12/25 08:47:06;;;;;;;18.55;10.80;;;8.10;99.90;;;;;;6244728;23;20004;-80
2020/12/25 08:49:31;;;;;;;20.20;10.95;;;8.10;99.90;;;;;;6245952;22;20008;-80
2020/12/25 08:51:57;;;;;;;16.10;10.52;;;8.10;99.90;;;;;;6246565;23;20444;-79
2020/12/25 08:54:27;;;;;;;18.25;10.45;;;8.10;99.90;;;;;;6240732;23;20008;-79
2020/12/25 08:56:56;;;;;;;14.88;9.18;;;8.10;99.90;;;;;;6242005;22;20027;-79
2020/12/25 08:59:22;;;;;;;14.60;8.95;;;8.10;99.90;;;;;;6242537;22;20075;-79
2020/12/25 09:01:50;;;;;;;13.25;8.98;;;8.10;99.90;;;;;;6239855;23;20004;-80
2020/12/25 09:04:19;;;;;;;15.85;7.97;;;8.10;99.90;;;;;;6243427;22;20412;-80
2020/12/25 09:06:49;;;;;;;15.32;9.52;;;8.10;99.90;;;;;;6242432;22;20004;-80
2020/12/25 09:09:15;;;;;;;13.77;9.57;;;8.10;99.90;;;;;;6243307;22;19999;-80
2020/12/25 09:11:41;;;;;;;41.97;19.88;;;8.10;99.90;;;;;;6242918;22;20004;-80
2020/12/25 09:14:07;;;;;;;32.40;16.33;;;8.10;99.90;;;;;;6246220;23;20497;-80
2020/12/25 09:16:32;;;;;;;16.38;9.13;;;8.20;99.90;;;;;;6244978;23;20359;-80
2020/12/25 09:18:59;;;;;;;11.85;7.47;;;8.10;99.90;;;;;;6246544;23;20001;-80
2020/12/25 09:21:27;;;;;;;13.10;7.82;;;8.10;99.90;;;;;;6246563;22;20030;-80
2020/12/25 09:23:56;;;;;;;9.50;6.65;;;8.10;99.90;;;;;;6246181;22;20015;-80
2020/12/25 09:26:22;;;;;;;4.22;3.92;;;8.10;99.90;;;;;;6246279;22;20000;-80
2020/12/25 09:28:49;;;;;;;4.63;4.10;;;8.10;99.90;;;;;;6246295;22;20424;-80
2020/12/25 09:31:15;;;;;;;4.47;3.78;;;8.10;99.90;;;;;;6246290;22;20090;-80
2020/12/25 09:33:41;;;;;;;4.40;3.47;;;8.10;99.90;;;;;;6246273;22;20024;-80
2020/12/25 09:36:08;;;;;;;4.20;3.00;;;8.10;99.90;;;;;;6245903;22;20012;-81
2020/12/25 09:38:36;;;;;;;3.50;3.17;;;8.00;99.90;;;;;;6246174;22;20030;-80
2020/12/25 09:41:02;;;;;;;2.78;2.58;;;8.00;99.90;;;;;;6246264;22;20452;-81
2020/12/25 09:43:29;;;;;;;3.05;2.78;;;8.00;99.90;;;;;;6246127;23;20000;-80
2020/12/25 09:45:55;;;;;;;2.53;1.88;;;8.00;99.90;;;;;;6245997;22;20086;-81
2020/12/25 09:48:21;;;;;;;2.60;2.30;;;8.10;99.90;;;;;;6246190;22;20000;-80
2020/12/25 09:50:47;;;;;;;2.08;1.92;;;8.10;99.90;;;;;;6245870;22;20019;-81
2020/12/25 09:53:13;;;;;;;2.05;1.65;;;8.10;99.90;;;;;;6245642;22;20375;-81
2020/12/25 09:55:41;;;;;;;1.40;1.40;;;8.00;99.90;;;;;;6245956;23;20030;-81
2020/12/25 09:58:08;;;;;;;1.58;1.48;;;8.00;99.90;;;;;;6244339;23;20026;-81
2020/12/25 10:00:34;;;;;;;2.55;2.35;;;8.00;99.90;;;;;;6245982;23;20004;-81
2020/12/25 10:02:59;;;;;;;3.53;2.22;;;7.90;99.90;;;;;;6241603;23;20061;-80
2020/12/25 10:05:25;;;;;;;2.60;2.20;;;7.90;99.90;;;;;;6241527;23;20011;-81
2020/12/25 10:07:54;;;;;;;5.82;4.10;;;7.80;99.90;;;;;;6242818;23;20000;-80
2020/12/25 10:10:21;;;;;;;1.55;1.45;;;7.80;99.90;;;;;;6242216;22;20004;-81
2020/12/25 10:12:48;;;;;;;4.90;3.45;;;7.70;99.90;;;;;;6243357;22;20031;-81
2020/12/25 10:15:17;;;;;;;5.68;4.47;;;7.60;99.90;;;;;;6243370;22;20066;-80
2020/12/25 10:17:43;;;;;;;2.60;2.42;;;7.60;99.90;;;;;;6242975;23;20045;-80
2020/12/25 10:20:12;;;;;;;3.33;3.03;;;7.50;99.90;;;;;;6243641;23;20083;-81
2020/12/25 10:22:37;;;;;;;4.68;1.98;;;7.40;99.90;;;;;;6241210;23;20008;-81
2020/12/25 10:25:03;;;;;;;3.40;2.13;;;7.40;99.90;;;;;;6242487;23;20004;-77
2020/12/25 10:27:29;;;;;;;2.38;2.17;;;7.30;99.90;;;;;;6242714;22;20010;-76
2020/12/25 10:29:58;;;;;;;1.30;1.20;;;7.30;99.90;;;;;;6239680;23;20005;-77
2020/12/25 10:32:23;;;;;;;2.67;1.50;;;7.30;99.90;;;;;;6241107;23;20501;-77
2020/12/25 10:35:09;;;;;;;3.30;2.45;;;7.30;99.90;;;;;;6241403;23;20004;-78
2020/12/25 10:37:36;;;;;;;2.22;1.70;;;7.30;99.90;;;;;;6219014;23;20012;-83
2020/12/25 10:40:04;;;;;;;1.33;1.23;;;7.30;99.90;;;;;;6242872;22;20011;-82
2020/12/25 10:42:29;;;;;;;3.63;0.80;;;7.30;99.90;;;;;;6242698;22;20011;-82
2020/12/25 10:44:55;;;;;;;1.40;0.90;;;7.20;99.90;;;;;;6241098;23;20736;-83
2020/12/25 10:47:21;;;;;;;0.98;0.63;;;7.20;99.90;;;;;;6242528;23;20432;-83
2020/12/25 10:49:46;;;;;;;0.70;0.70;;;7.20;99.90;;;;;;6242966;23;20015;-84
2020/12/25 10:52:12;;;;;;;0.90;0.90;;;7.20;99.90;;;;;;6241370;23;20008;-85
2020/12/25 10:54:37;;;;;;;1.67;1.17;;;7.20;99.90;;;;;;6241191;23;20095;-84
2020/12/25 10:57:03;;;;;;;0.90;0.90;;;7.10;99.90;;;;;;6239343;23;20003;-84
2020/12/25 10:59:29;;;;;;;1.40;1.00;;;7.20;99.90;;;;;;6240736;23;20004;-84
2020/12/25 11:01:54;;;;;;;0.60;0.60;;;7.20;99.90;;;;;;6234384;23;20031;-83
2020/12/25 11:04:20;;;;;;;0.93;0.93;;;7.20;99.90;;;;;;6235165;23;20791;-83
2020/12/25 11:06:46;;;;;;;0.90;0.90;;;7.30;99.90;;;;;;6240597;23;20385;-84
2020/12/25 11:09:11;;;;;;;0.80;0.80;;;7.30;99.90;;;;;;6241573;23;20015;-84
2020/12/25 11:11:40;;;;;;;1.38;1.27;;;7.30;99.90;;;;;;6241791;23;20008;-83
2020/12/25 11:14:06;;;;;;;2.83;2.58;;;7.30;99.90;;;;;;6243245;23;20087;-84
2020/12/25 11:16:36;;;;;;;2.17;1.98;;;7.30;99.90;;;;;;6244015;22;20058;-84
2020/12/25 11:19:04;;;;;;;2.83;2.63;;;7.30;99.90;;;;;;6242291;22;20050;-84
2020/12/25 11:21:31;;;;;;;2.22;1.63;;;7.20;99.90;;;;;;6241991;23;20004;-84
2020/12/25 11:23:59;;;;;;;1.00;1.00;;;7.20;99.90;;;;;;6244204;23;20015;-77
2020/12/25 11:26:27;;;;;;;0.52;0.52;;;7.10;99.90;;;;;;6244669;23;20035;-78
2020/12/25 11:28:55;;;;;;;1.08;0.82;;;7.10;99.90;;;;;;6245099;23;20023;-78
2020/12/25 11:31:21;;;;;;;0.80;0.80;;;7.00;99.90;;;;;;6246390;22;20000;-78
2020/12/25 11:33:48;;;;;;;1.40;1.30;;;7.10;99.90;;;;;;6244862;23;20008;-78
2020/12/25 11:36:24;;;;;;;1.67;1.58;;;7.00;99.90;;;;;;6244474;23;20008;-78
2020/12/25 11:38:50;;;;;;;1.10;1.00;;;7.10;99.90;;;;;;6246439;22;19996;-78
2020/12/25 11:41:18;;;;;;;1.23;0.70;;;7.10;99.90;;;;;;6246811;22;20000;-77
2020/12/25 11:43:44;;;;;;;0.88;0.88;;;7.10;99.90;;;;;;6245127;23;20073;-77
2020/12/25 11:46:11;;;;;;;0.90;0.90;;;7.20;99.90;;;;;;6244511;23;20545;-77
2020/12/25 11:48:38;;;;;;;1.33;1.23;;;7.20;99.90;;;;;;6246847;22;20008;-77
2020/12/25 11:51:07;;;;;;;1.25;0.98;;;7.40;99.90;;;;;;6244568;23;20008;-77
2020/12/25 11:53:33;;;;;;;0.50;0.50;;;7.40;99.90;;;;;;6245045;23;20035;-77
2020/12/25 11:55:59;;;;;;;0.70;0.70;;;7.50;99.90;;;;;;6246706;22;20076;-77
2020/12/25 11:58:25;;;;;;;1.50;1.00;;;7.50;99.90;;;;;;6246501;23;20444;-77
2020/12/25 12:00:51;;;;;;;0.50;0.50;;;7.60;99.90;;;;;;6244832;23;20011;-77
2020/12/25 12:03:16;;;;;;;0.60;0.60;;;7.60;99.90;;;;;;6246233;23;20077;-77
2020/12/25 12:05:43;;;;;;;0.80;0.80;;;7.70;99.90;;;;;;6244766;23;19996;-77
2020/12/25 12:08:10;;;;;;;0.60;0.60;;;7.70;99.90;;;;;;6244781;23;20032;-77
2020/12/25 12:10:36;;;;;;;0.50;0.50;;;7.70;99.90;;;;;;6246289;22;20000;-77
2020/12/25 12:13:04;;;;;;;0.50;0.50;;;7.70;99.90;;;;;;6246334;22;20003;-77
2020/12/25 12:15:34;;;;;;;1.23;1.15;;;7.70;99.90;;;;;;6246122;22;20090;-77
2020/12/25 12:18:00;;;;;;;0.40;0.40;;;7.80;99.90;;;;;;6244878;23;20087;-77
2020/12/25 12:20:25;;;;;;;0.57;0.57;;;7.80;99.90;;;;;;6244675;23;20036;-77
2020/12/25 12:22:51;;;;;;;0.85;0.60;;;7.80;99.90;;;;;;6242459;23;20011;-77
2020/12/25 12:25:17;;;;;;;0.68;0.65;;;7.80;99.90;;;;;;6244093;23;20008;-78
2020/12/25 12:27:43;;;;;;;0.40;0.40;;;7.80;99.90;;;;;;6245796;23;20004;-77
2020/12/25 12:30:09;;;;;;;0.60;0.60;;;7.80;99.90;;;;;;6240287;23;20058;-77
2020/12/25 12:32:34;;;;;;;0.63;0.63;;;7.80;99.90;;;;;;6244049;23;19992;-82
2020/12/25 12:35:00;;;;;;;0.60;0.60;;;7.80;99.90;;;;;;6246004;23;20000;-83
2020/12/25 12:37:26;;;;;;;0.60;0.60;;;7.90;99.90;;;;;;6244938;23;20000;-83
2020/12/25 12:39:52;;;;;;;0.80;0.80;;;7.80;99.90;;;;;;6246323;22;20003;-83
2020/12/25 12:42:17;;;;;;;11.15;2.05;;;7.80;99.90;;;;;;6244660;23;20004;-83